Terminal Aerodrome Forecast
Issued by NWS

Home | Current Version | Previous Version | Text Only | Print | Product List | Glossary On
Versions: 1 2 3 4 5 6 7 8 9 10 11 12 13 14 15 16 17 18 19
989
FTUS43 KEAX 141120
TAFSTJ
TAF
KSTJ 141120Z 1412/1512 01005KT P6SM BKN027 OVC035
     FM141500 VRB04KT P6SM OVC025
     FM150800 VRB03KT P6SM -FZRA OVC015
     FM151100 VRB05KT 2SM -FZRA BR OVC008=

USA.gov is the U.S. government's official web portal to all federal, state and local government web resources and services.